sensor_id;sensor_type;location;lat;lon;timestamp;P1;durP1;ratioP1;P2;durP2;ratioP2
80586;SDS011;69943;20.850;106.728;2023-07-22T00:01:35;2.70;;;1.90;;
80586;SDS011;69943;20.850;106.728;2023-07-22T00:04:05;4.60;;;2.00;;
80586;SDS011;69943;20.850;106.728;2023-07-22T00:06:39;4.50;;;2.50;;
80586;SDS011;69943;20.850;106.728;2023-07-22T00:09:08;5.00;;;2.60;;
80586;SDS011;69943;20.850;106.728;2023-07-22T00:11:39;3.80;;;2.30;;
80586;SDS011;69943;20.850;106.728;2023-07-22T00:14:09;6.40;;;2.20;;
80586;SDS011;69943;20.850;106.728;2023-07-22T00:16:39;3.80;;;2.40;;
80586;SDS011;69943;20.850;106.728;2023-07-22T00:19:09;3.80;;;2.40;;
80586;SDS011;69943;20.850;106.728;2023-07-22T00:21:39;4.20;;;2.50;;
80586;SDS011;69943;20.850;106.728;2023-07-22T00:24:09;7.20;;;3.50;;
80586;SDS011;69943;20.850;106.728;2023-07-22T00:26:39;4.60;;;2.20;;
80586;SDS011;69943;20.850;106.728;2023-07-22T00:29:11;3.90;;;2.30;;
80586;SDS011;69943;20.850;106.728;2023-07-22T00:31:41;4.70;;;2.40;;
80586;SDS011;69943;20.850;106.728;2023-07-22T00:34:12;2.80;;;2.10;;
80586;SDS011;69943;20.850;106.728;2023-07-22T00:36:42;5.00;;;2.60;;
80586;SDS011;69943;20.850;106.728;2023-07-22T00:39:12;5.80;;;2.70;;
80586;SDS011;69943;20.850;106.728;2023-07-22T00:41:42;4.80;;;2.70;;
80586;SDS011;69943;20.850;106.728;2023-07-22T00:44:13;3.50;;;3.00;;
80586;SDS011;69943;20.850;106.728;2023-07-22T00:46:43;6.10;;;2.80;;
80586;SDS011;69943;20.850;106.728;2023-07-22T00:49:14;5.40;;;3.10;;
80586;SDS011;69943;20.850;106.728;2023-07-22T00:51:44;6.10;;;3.00;;
80586;SDS011;69943;20.850;106.728;2023-07-22T00:54:14;3.90;;;2.80;;
80586;SDS011;69943;20.850;106.728;2023-07-22T00:56:44;3.10;;;2.40;;
80586;SDS011;69943;20.850;106.728;2023-07-22T00:59:16;4.60;;;2.70;;
80586;SDS011;69943;20.850;106.728;2023-07-22T01:01:46;3.90;;;2.30;;
80586;SDS011;69943;20.850;106.728;2023-07-22T01:04:16;3.70;;;2.70;;
80586;SDS011;69943;20.850;106.728;2023-07-22T01:06:50;5.60;;;2.70;;
80586;SDS011;69943;20.850;106.728;2023-07-22T01:09:24;4.30;;;2.80;;
80586;SDS011;69943;20.850;106.728;2023-07-22T01:11:55;3.90;;;2.70;;
80586;SDS011;69943;20.850;106.728;2023-07-22T01:14:25;5.10;;;2.80;;
80586;SDS011;69943;20.850;106.728;2023-07-22T01:16:56;5.10;;;2.70;;
80586;SDS011;69943;20.850;106.728;2023-07-22T01:19:26;12.50;;;3.20;;
80586;SDS011;69943;20.850;106.728;2023-07-22T01:21:59;5.50;;;3.10;;
80586;SDS011;69943;20.850;106.728;2023-07-22T01:24:31;4.60;;;3.20;;
80586;SDS011;69943;20.850;106.728;2023-07-22T01:27:01;5.10;;;3.30;;
80586;SDS011;69943;20.850;106.728;2023-07-22T01:29:32;4.50;;;3.30;;
80586;SDS011;69943;20.850;106.728;2023-07-22T01:32:03;6.20;;;3.40;;
80586;SDS011;69943;20.850;106.728;2023-07-22T01:34:33;8.50;;;3.90;;
80586;SDS011;69943;20.850;106.728;2023-07-22T01:37:03;5.70;;;3.70;;
80586;SDS011;69943;20.850;106.728;2023-07-22T01:39:33;9.20;;;3.80;;
80586;SDS011;69943;20.850;106.728;2023-07-22T01:42:05;6.60;;;4.50;;
80586;SDS011;69943;20.850;106.728;2023-07-22T01:44:35;6.10;;;4.80;;
80586;SDS011;69943;20.850;106.728;2023-07-22T01:47:05;6.60;;;4.30;;
80586;SDS011;69943;20.850;106.728;2023-07-22T01:49:35;4.10;;;3.30;;
80586;SDS011;69943;20.850;106.728;2023-07-22T01:52:07;5.40;;;4.10;;
80586;SDS011;69943;20.850;106.728;2023-07-22T01:54:38;7.30;;;4.20;;
80586;SDS011;69943;20.850;106.728;2023-07-22T01:57:08;6.60;;;4.00;;
80586;SDS011;69943;20.850;106.728;2023-07-22T01:59:39;8.90;;;5.00;;
80586;SDS011;69943;20.850;106.728;2023-07-22T02:02:09;6.80;;;5.30;;
80586;SDS011;69943;20.850;106.728;2023-07-22T02:04:39;9.40;;;5.00;;
80586;SDS011;69943;20.850;106.728;2023-07-22T02:07:09;9.10;;;5.30;;
80586;SDS011;69943;20.850;106.728;2023-07-22T02:09:39;6.50;;;4.70;;
80586;SDS011;69943;20.850;106.728;2023-07-22T02:12:09;7.00;;;4.10;;
80586;SDS011;69943;20.850;106.728;2023-07-22T02:14:39;7.60;;;5.30;;
80586;SDS011;69943;20.850;106.728;2023-07-22T02:17:09;8.90;;;5.30;;
80586;SDS011;69943;20.850;106.728;2023-07-22T02:19:39;7.30;;;4.90;;
80586;SDS011;69943;20.850;106.728;2023-07-22T02:22:09;8.60;;;5.00;;
80586;SDS011;69943;20.850;106.728;2023-07-22T02:24:39;6.20;;;4.50;;
80586;SDS011;69943;20.850;106.728;2023-07-22T02:27:10;9.90;;;4.70;;
80586;SDS011;69943;20.850;106.728;2023-07-22T02:29:40;10.50;;;5.70;;
80586;SDS011;69943;20.850;106.728;2023-07-22T02:32:10;8.30;;;4.80;;
80586;SDS011;69943;20.850;106.728;2023-07-22T02:34:40;8.50;;;5.10;;
80586;SDS011;69943;20.850;106.728;2023-07-22T02:37:10;6.10;;;4.50;;
80586;SDS011;69943;20.850;106.728;2023-07-22T02:39:40;6.40;;;5.00;;
80586;SDS011;69943;20.850;106.728;2023-07-22T02:42:10;8.00;;;5.40;;
80586;SDS011;69943;20.850;106.728;2023-07-22T02:44:40;7.60;;;5.00;;
80586;SDS011;69943;20.850;106.728;2023-07-22T02:47:10;8.10;;;5.10;;
80586;SDS011;69943;20.850;106.728;2023-07-22T02:49:40;9.40;;;4.90;;
80586;SDS011;69943;20.850;106.728;2023-07-22T02:52:10;5.60;;;4.50;;
80586;SDS011;69943;20.850;106.728;2023-07-22T02:54:40;7.00;;;5.30;;
80586;SDS011;69943;20.850;106.728;2023-07-22T02:57:11;6.80;;;4.70;;
80586;SDS011;69943;20.850;106.728;2023-07-22T02:59:42;6.10;;;4.60;;
80586;SDS011;69943;20.850;106.728;2023-07-22T03:02:12;9.10;;;4.80;;
80586;SDS011;69943;20.850;106.728;2023-07-22T03:04:47;8.50;;;5.80;;
80586;SDS011;69943;20.850;106.728;2023-07-22T03:07:17;12.10;;;5.30;;
80586;SDS011;69943;20.850;106.728;2023-07-22T03:09:48;8.20;;;5.10;;
80586;SDS011;69943;20.850;106.728;2023-07-22T03:12:18;8.90;;;5.60;;
80586;SDS011;69943;20.850;106.728;2023-07-22T03:14:48;6.40;;;4.90;;
80586;SDS011;69943;20.850;106.728;2023-07-22T03:17:18;7.70;;;5.10;;
80586;SDS011;69943;20.850;106.728;2023-07-22T03:19:48;7.30;;;5.40;;
80586;SDS011;69943;20.850;106.728;2023-07-22T03:22:19;8.80;;;5.00;;
80586;SDS011;69943;20.850;106.728;2023-07-22T03:24:52;7.70;;;5.40;;
80586;SDS011;69943;20.850;106.728;2023-07-22T03:27:22;7.80;;;4.30;;
80586;SDS011;69943;20.850;106.728;2023-07-22T03:29:53;8.60;;;5.00;;
80586;SDS011;69943;20.850;106.728;2023-07-22T03:32:24;5.70;;;4.60;;
80586;SDS011;69943;20.850;106.728;2023-07-22T03:34:54;5.90;;;4.90;;
80586;SDS011;69943;20.850;106.728;2023-07-22T03:37:23;6.80;;;5.00;;
80586;SDS011;69943;20.850;106.728;2023-07-22T03:39:55;7.00;;;4.90;;
80586;SDS011;69943;20.850;106.728;2023-07-22T03:42:25;6.30;;;5.00;;
80586;SDS011;69943;20.850;106.728;2023-07-22T03:44:55;8.00;;;5.00;;
80586;SDS011;69943;20.850;106.728;2023-07-22T03:47:26;6.00;;;4.80;;
80586;SDS011;69943;20.850;106.728;2023-07-22T03:49:56;6.90;;;5.20;;
80586;SDS011;69943;20.850;106.728;2023-07-22T03:52:26;8.00;;;6.60;;
80586;SDS011;69943;20.850;106.728;2023-07-22T03:54:57;8.30;;;5.40;;
80586;SDS011;69943;20.850;106.728;2023-07-22T03:57:27;8.40;;;5.80;;
80586;SDS011;69943;20.850;106.728;2023-07-22T03:59:59;8.70;;;6.10;;
80586;SDS011;69943;20.850;106.728;2023-07-22T04:02:29;7.70;;;5.60;;
80586;SDS011;69943;20.850;106.728;2023-07-22T04:05:03;9.80;;;6.20;;
80586;SDS011;69943;20.850;106.728;2023-07-22T04:07:34;7.20;;;5.70;;
80586;SDS011;69943;20.850;106.728;2023-07-22T04:10:05;8.20;;;5.30;;
80586;SDS011;69943;20.850;106.728;2023-07-22T04:12:38;7.20;;;4.90;;
80586;SDS011;69943;20.850;106.728;2023-07-22T04:15:08;6.30;;;5.70;;
80586;SDS011;69943;20.850;106.728;2023-07-22T04:17:40;11.10;;;5.90;;
80586;SDS011;69943;20.850;106.728;2023-07-22T04:20:10;8.10;;;5.50;;
80586;SDS011;69943;20.850;106.728;2023-07-22T04:22:41;11.10;;;6.00;;
80586;SDS011;69943;20.850;106.728;2023-07-22T04:25:11;6.20;;;5.10;;
80586;SDS011;69943;20.850;106.728;2023-07-22T04:27:41;7.70;;;5.50;;
80586;SDS011;69943;20.850;106.728;2023-07-22T04:30:12;7.80;;;5.50;;
80586;SDS011;69943;20.850;106.728;2023-07-22T04:32:48;11.90;;;5.90;;
80586;SDS011;69943;20.850;106.728;2023-07-22T04:35:18;9.80;;;5.90;;
80586;SDS011;69943;20.850;106.728;2023-07-22T04:37:50;6.60;;;5.10;;
80586;SDS011;69943;20.850;106.728;2023-07-22T04:40:21;6.00;;;5.40;;
80586;SDS011;69943;20.850;106.728;2023-07-22T04:42:54;7.30;;;5.70;;
80586;SDS011;69943;20.850;106.728;2023-07-22T04:45:25;8.00;;;5.50;;
80586;SDS011;69943;20.850;106.728;2023-07-22T04:47:55;7.00;;;5.30;;
80586;SDS011;69943;20.850;106.728;2023-07-22T04:50:25;7.00;;;5.10;;
80586;SDS011;69943;20.850;106.728;2023-07-22T04:52:55;7.00;;;5.50;;
80586;SDS011;69943;20.850;106.728;2023-07-22T04:55:25;8.00;;;5.50;;
80586;SDS011;69943;20.850;106.728;2023-07-22T04:57:58;7.00;;;5.00;;
80586;SDS011;69943;20.850;106.728;2023-07-22T05:00:28;6.00;;;4.30;;
80586;SDS011;69943;20.850;106.728;2023-07-22T05:02:58;6.30;;;4.70;;
80586;SDS011;69943;20.850;106.728;2023-07-22T05:05:29;7.10;;;4.20;;
80586;SDS011;69943;20.850;106.728;2023-07-22T05:08:00;7.00;;;4.90;;
80586;SDS011;69943;20.850;106.728;2023-07-22T05:10:33;7.30;;;5.20;;
80586;SDS011;69943;20.850;106.728;2023-07-22T05:13:04;4.80;;;4.20;;
80586;SDS011;69943;20.850;106.728;2023-07-22T05:15:34;6.10;;;4.40;;
80586;SDS011;69943;20.850;106.728;2023-07-22T05:18:04;4.90;;;4.30;;
80586;SDS011;69943;20.850;106.728;2023-07-22T05:20:34;5.20;;;4.60;;
80586;SDS011;69943;20.850;106.728;2023-07-22T05:23:05;7.00;;;4.80;;
80586;SDS011;69943;20.850;106.728;2023-07-22T05:25:35;5.00;;;4.00;;
80586;SDS011;69943;20.850;106.728;2023-07-22T05:28:11;4.40;;;3.90;;
80586;SDS011;69943;20.850;106.728;2023-07-22T05:30:41;5.60;;;3.90;;
80586;SDS011;69943;20.850;106.728;2023-07-22T05:33:12;6.20;;;4.40;;
80586;SDS011;69943;20.850;106.728;2023-07-22T05:35:43;4.40;;;3.70;;
80586;SDS011;69943;20.850;106.728;2023-07-22T05:38:13;4.90;;;3.90;;
80586;SDS011;69943;20.850;106.728;2023-07-22T05:40:44;5.40;;;4.00;;
80586;SDS011;69943;20.850;106.728;2023-07-22T05:43:14;5.70;;;3.50;;
80586;SDS011;69943;20.850;106.728;2023-07-22T05:45:44;4.70;;;3.70;;
80586;SDS011;69943;20.850;106.728;2023-07-22T05:48:14;6.00;;;4.30;;
80586;SDS011;69943;20.850;106.728;2023-07-22T05:50:46;5.70;;;3.30;;
80586;SDS011;69943;20.850;106.728;2023-07-22T05:53:19;4.90;;;3.40;;
80586;SDS011;69943;20.850;106.728;2023-07-22T05:55:49;4.50;;;3.10;;
80586;SDS011;69943;20.850;106.728;2023-07-22T05:58:19;4.30;;;3.40;;
80586;SDS011;69943;20.850;106.728;2023-07-22T06:00:49;5.20;;;3.60;;
80586;SDS011;69943;20.850;106.728;2023-07-22T06:03:20;7.00;;;3.20;;
80586;SDS011;69943;20.850;106.728;2023-07-22T06:05:50;3.70;;;3.40;;
80586;SDS011;69943;20.850;106.728;2023-07-22T06:08:20;3.50;;;3.20;;
80586;SDS011;69943;20.850;106.728;2023-07-22T06:10:52;4.10;;;2.60;;
80586;SDS011;69943;20.850;106.728;2023-07-22T06:13:22;4.80;;;2.90;;
80586;SDS011;69943;20.850;106.728;2023-07-22T06:15:52;3.80;;;2.70;;
80586;SDS011;69943;20.850;106.728;2023-07-22T06:18:22;4.10;;;2.80;;
80586;SDS011;69943;20.850;106.728;2023-07-22T06:20:53;4.30;;;2.70;;
80586;SDS011;69943;20.850;106.728;2023-07-22T06:23:23;3.80;;;2.30;;
80586;SDS011;69943;20.850;106.728;2023-07-22T06:25:53;2.50;;;2.30;;
80586;SDS011;69943;20.850;106.728;2023-07-22T06:28:23;4.10;;;2.40;;
80586;SDS011;69943;20.850;106.728;2023-07-22T06:30:53;3.20;;;2.30;;
80586;SDS011;69943;20.850;106.728;2023-07-22T06:33:23;4.40;;;2.40;;
80586;SDS011;69943;20.850;106.728;2023-07-22T06:35:55;3.30;;;1.90;;
80586;SDS011;69943;20.850;106.728;2023-07-22T06:38:24;4.00;;;2.60;;
80586;SDS011;69943;20.850;106.728;2023-07-22T06:40:55;2.70;;;2.30;;
80586;SDS011;69943;20.850;106.728;2023-07-22T06:43:25;2.70;;;1.90;;
80586;SDS011;69943;20.850;106.728;2023-07-22T06:45:55;4.90;;;2.40;;
80586;SDS011;69943;20.850;106.728;2023-07-22T06:48:25;2.90;;;2.20;;
80586;SDS011;69943;20.850;106.728;2023-07-22T06:50:56;4.70;;;2.30;;
80586;SDS011;69943;20.850;106.728;2023-07-22T06:53:28;5.40;;;2.20;;
80586;SDS011;69943;20.850;106.728;2023-07-22T06:55:59;3.70;;;2.50;;
80586;SDS011;69943;20.850;106.728;2023-07-22T06:58:30;4.60;;;1.80;;
80586;SDS011;69943;20.850;106.728;2023-07-22T07:01:01;3.50;;;1.90;;
80586;SDS011;69943;20.850;106.728;2023-07-22T07:03:31;3.40;;;2.10;;
80586;SDS011;69943;20.850;106.728;2023-07-22T07:06:05;2.80;;;1.70;;
80586;SDS011;69943;20.850;106.728;2023-07-22T07:08:35;4.10;;;2.00;;
80586;SDS011;69943;20.850;106.728;2023-07-22T07:11:05;2.80;;;1.90;;
80586;SDS011;69943;20.850;106.728;2023-07-22T07:13:36;3.30;;;2.00;;
80586;SDS011;69943;20.850;106.728;2023-07-22T07:16:25;2.80;;;2.10;;
80586;SDS011;69943;20.850;106.728;2023-07-22T07:19:00;2.60;;;1.60;;
80586;SDS011;69943;20.850;106.728;2023-07-22T07:21:30;1.60;;;1.30;;
80586;SDS011;69943;20.850;106.728;2023-07-22T07:24:01;3.10;;;1.70;;
80586;SDS011;69943;20.850;106.728;2023-07-22T07:26:31;4.10;;;1.80;;
80586;SDS011;69943;20.850;106.728;2023-07-22T07:29:02;3.90;;;1.60;;
80586;SDS011;69943;20.850;106.728;2023-07-22T07:31:32;4.20;;;1.90;;
80586;SDS011;69943;20.850;106.728;2023-07-22T07:34:02;2.90;;;1.60;;
80586;SDS011;69943;20.850;106.728;2023-07-22T07:36:33;3.50;;;1.80;;
80586;SDS011;69943;20.850;106.728;2023-07-22T07:39:06;3.30;;;1.50;;
80586;SDS011;69943;20.850;106.728;2023-07-22T07:41:36;3.60;;;1.70;;
80586;SDS011;69943;20.850;106.728;2023-07-22T07:44:06;2.00;;;1.60;;
80586;SDS011;69943;20.850;106.728;2023-07-22T07:46:36;2.40;;;1.50;;
80586;SDS011;69943;20.850;106.728;2023-07-22T07:49:06;1.80;;;1.40;;
80586;SDS011;69943;20.850;106.728;2023-07-22T07:51:37;2.80;;;1.50;;
80586;SDS011;69943;20.850;106.728;2023-07-22T07:54:08;2.40;;;1.50;;
80586;SDS011;69943;20.850;106.728;2023-07-22T07:56:41;1.40;;;1.20;;
80586;SDS011;69943;20.850;106.728;2023-07-22T07:59:13;5.90;;;1.70;;
80586;SDS011;69943;20.850;106.728;2023-07-22T08:01:43;3.80;;;1.50;;
80586;SDS011;69943;20.850;106.728;2023-07-22T08:04:13;3.20;;;1.30;;
80586;SDS011;69943;20.850;106.728;2023-07-22T08:06:45;2.30;;;1.60;;
80586;SDS011;69943;20.850;106.728;2023-07-22T08:09:15;2.20;;;1.40;;
80586;SDS011;69943;20.850;106.728;2023-07-22T08:11:50;1.40;;;1.00;;
80586;SDS011;69943;20.850;106.728;2023-07-22T08:14:20;1.60;;;1.20;;
80586;SDS011;69943;20.850;106.728;2023-07-22T08:16:58;3.40;;;1.30;;
80586;SDS011;69943;20.850;106.728;2023-07-22T08:19:28;1.80;;;1.30;;
80586;SDS011;69943;20.850;106.728;2023-07-22T08:21:58;2.70;;;1.50;;
80586;SDS011;69943;20.850;106.728;2023-07-22T08:24:30;1.40;;;1.30;;
80586;SDS011;69943;20.850;106.728;2023-07-22T08:27:01;2.40;;;1.30;;
80586;SDS011;69943;20.850;106.728;2023-07-22T08:29:31;3.10;;;1.30;;
80586;SDS011;69943;20.850;106.728;2023-07-22T08:32:01;3.90;;;1.60;;
80586;SDS011;69943;20.850;106.728;2023-07-22T08:34:32;2.30;;;1.40;;
80586;SDS011;69943;20.850;106.728;2023-07-22T08:37:03;2.30;;;1.00;;
80586;SDS011;69943;20.850;106.728;2023-07-22T08:39:33;1.90;;;1.50;;
80586;SDS011;69943;20.850;106.728;2023-07-22T08:42:03;1.90;;;1.20;;
80586;SDS011;69943;20.850;106.728;2023-07-22T08:44:35;1.90;;;1.20;;
80586;SDS011;69943;20.850;106.728;2023-07-22T08:47:09;1.80;;;1.30;;
80586;SDS011;69943;20.850;106.728;2023-07-22T08:49:45;2.70;;;1.30;;
80586;SDS011;69943;20.850;106.728;2023-07-22T08:52:20;1.60;;;1.10;;
80586;SDS011;69943;20.850;106.728;2023-07-22T08:54:51;1.90;;;1.20;;
80586;SDS011;69943;20.850;106.728;2023-07-22T08:57:21;1.80;;;1.20;;
80586;SDS011;69943;20.850;106.728;2023-07-22T08:59:53;4.90;;;1.10;;
80586;SDS011;69943;20.850;106.728;2023-07-22T09:02:24;2.20;;;1.10;;
80586;SDS011;69943;20.850;106.728;2023-07-22T09:04:54;2.80;;;1.50;;
80586;SDS011;69943;20.850;106.728;2023-07-22T09:07:24;2.80;;;1.30;;
80586;SDS011;69943;20.850;106.728;2023-07-22T09:09:58;2.50;;;1.20;;
80586;SDS011;69943;20.850;106.728;2023-07-22T09:12:28;1.50;;;1.20;;
80586;SDS011;69943;20.850;106.728;2023-07-22T09:14:58;3.10;;;1.30;;
80586;SDS011;69943;20.850;106.728;2023-07-22T09:17:28;3.30;;;1.20;;
80586;SDS011;69943;20.850;106.728;2023-07-22T09:19:58;4.00;;;1.20;;
80586;SDS011;69943;20.850;106.728;2023-07-22T09:22:29;1.70;;;1.10;;
80586;SDS011;69943;20.850;106.728;2023-07-22T09:25:34;3.20;;;1.60;;
80586;SDS011;69943;20.850;106.728;2023-07-22T09:27:59;2.90;;;1.50;;
80586;SDS011;69943;20.850;106.728;2023-07-22T09:30:33;3.70;;;1.40;;
80586;SDS011;69943;20.850;106.728;2023-07-22T09:33:06;3.00;;;1.40;;
80586;SDS011;69943;20.850;106.728;2023-07-22T09:35:46;1.90;;;1.30;;
80586;SDS011;69943;20.850;106.728;2023-07-22T09:38:24;1.10;;;0.90;;
80586;SDS011;69943;20.850;106.728;2023-07-22T09:40:55;2.80;;;1.50;;
80586;SDS011;69943;20.850;106.728;2023-07-22T09:43:25;2.40;;;1.20;;
80586;SDS011;69943;20.850;106.728;2023-07-22T09:45:55;2.20;;;1.20;;
80586;SDS011;69943;20.850;106.728;2023-07-22T09:48:25;2.00;;;1.10;;
80586;SDS011;69943;20.850;106.728;2023-07-22T09:50:56;2.80;;;1.20;;
80586;SDS011;69943;20.850;106.728;2023-07-22T09:53:26;2.30;;;1.20;;
80586;SDS011;69943;20.850;106.728;2023-07-22T09:55:56;2.80;;;1.50;;
80586;SDS011;69943;20.850;106.728;2023-07-22T09:58:33;1.80;;;1.20;;
80586;SDS011;69943;20.850;106.728;2023-07-22T10:01:03;2.90;;;1.20;;
80586;SDS011;69943;20.850;106.728;2023-07-22T10:03:33;2.70;;;1.20;;
80586;SDS011;69943;20.850;106.728;2023-07-22T10:06:07;2.60;;;0.90;;
80586;SDS011;69943;20.850;106.728;2023-07-22T10:08:37;2.70;;;1.30;;
80586;SDS011;69943;20.850;106.728;2023-07-22T10:11:08;2.40;;;1.50;;
80586;SDS011;69943;20.850;106.728;2023-07-22T10:13:38;1.50;;;1.30;;
80586;SDS011;69943;20.850;106.728;2023-07-22T10:16:08;4.80;;;1.70;;
80586;SDS011;69943;20.850;106.728;2023-07-22T10:18:39;3.30;;;1.50;;
80586;SDS011;69943;20.850;106.728;2023-07-22T10:21:11;2.60;;;0.90;;
80586;SDS011;69943;20.850;106.728;2023-07-22T10:23:42;3.60;;;1.70;;
80586;SDS011;69943;20.850;106.728;2023-07-22T10:26:19;2.00;;;1.20;;
80586;SDS011;69943;20.850;106.728;2023-07-22T10:28:50;2.90;;;1.30;;
80586;SDS011;69943;20.850;106.728;2023-07-22T10:31:21;2.50;;;1.10;;
80586;SDS011;69943;20.850;106.728;2023-07-22T10:33:51;2.80;;;1.20;;
80586;SDS011;69943;20.850;106.728;2023-07-22T10:36:21;3.40;;;1.60;;
80586;SDS011;69943;20.850;106.728;2023-07-22T10:38:59;2.30;;;1.10;;
80586;SDS011;69943;20.850;106.728;2023-07-22T10:41:29;3.00;;;1.00;;
80586;SDS011;69943;20.850;106.728;2023-07-22T10:44:02;1.50;;;1.10;;
80586;SDS011;69943;20.850;106.728;2023-07-22T10:49:11;3.20;;;1.50;;
80586;SDS011;69943;20.850;106.728;2023-07-22T10:51:48;2.20;;;1.20;;
80586;SDS011;69943;20.850;106.728;2023-07-22T10:54:34;2.50;;;1.60;;
80586;SDS011;69943;20.850;106.728;2023-07-22T10:57:22;1.90;;;1.10;;
80586;SDS011;69943;20.850;106.728;2023-07-22T10:59:54;1.60;;;1.30;;
80586;SDS011;69943;20.850;106.728;2023-07-22T11:02:29;1.70;;;1.00;;
80586;SDS011;69943;20.850;106.728;2023-07-22T11:05:02;1.90;;;1.10;;
80586;SDS011;69943;20.850;106.728;2023-07-22T11:07:34;1.80;;;1.00;;
80586;SDS011;69943;20.850;106.728;2023-07-22T11:10:17;2.20;;;1.30;;
80586;SDS011;69943;20.850;106.728;2023-07-22T11:12:48;2.90;;;1.20;;
80586;SDS011;69943;20.850;106.728;2023-07-22T11:15:18;2.30;;;1.30;;
80586;SDS011;69943;20.850;106.728;2023-07-22T11:17:48;1.50;;;1.00;;
80586;SDS011;69943;20.850;106.728;2023-07-22T11:20:18;2.20;;;1.30;;
80586;SDS011;69943;20.850;106.728;2023-07-22T11:22:52;2.30;;;1.30;;
80586;SDS011;69943;20.850;106.728;2023-07-22T11:25:22;2.10;;;1.10;;
80586;SDS011;69943;20.850;106.728;2023-07-22T11:27:52;3.30;;;1.10;;
80586;SDS011;69943;20.850;106.728;2023-07-22T11:30:23;1.90;;;1.20;;
80586;SDS011;69943;20.850;106.728;2023-07-22T11:32:57;1.20;;;1.10;;
80586;SDS011;69943;20.850;106.728;2023-07-22T11:35:30;2.80;;;1.40;;
80586;SDS011;69943;20.850;106.728;2023-07-22T11:38:01;3.30;;;1.40;;
80586;SDS011;69943;20.850;106.728;2023-07-22T11:40:34;2.70;;;1.10;;
80586;SDS011;69943;20.850;106.728;2023-07-22T11:43:04;3.40;;;1.60;;
80586;SDS011;69943;20.850;106.728;2023-07-22T11:45:37;3.00;;;1.10;;
80586;SDS011;69943;20.850;106.728;2023-07-22T11:48:09;2.80;;;1.20;;
80586;SDS011;69943;20.850;106.728;2023-07-22T11:50:39;2.30;;;1.20;;
80586;SDS011;69943;20.850;106.728;2023-07-22T11:53:09;2.30;;;1.30;;
80586;SDS011;69943;20.850;106.728;2023-07-22T11:55:40;2.30;;;1.30;;
80586;SDS011;69943;20.850;106.728;2023-07-22T11:58:10;2.60;;;1.40;;
80586;SDS011;69943;20.850;106.728;2023-07-22T12:00:43;2.40;;;1.40;;
80586;SDS011;69943;20.850;106.728;2023-07-22T12:03:14;1.70;;;1.30;;
80586;SDS011;69943;20.850;106.728;2023-07-22T12:05:44;1.80;;;1.10;;
80586;SDS011;69943;20.850;106.728;2023-07-22T12:08:16;2.20;;;1.10;;
80586;SDS011;69943;20.850;106.728;2023-07-22T12:10:55;1.90;;;1.10;;
80586;SDS011;69943;20.850;106.728;2023-07-22T12:13:29;3.00;;;1.40;;
80586;SDS011;69943;20.850;106.728;2023-07-22T12:16:05;2.60;;;1.30;;
80586;SDS011;69943;20.850;106.728;2023-07-22T12:18:45;0.90;;;0.80;;
80586;SDS011;69943;20.850;106.728;2023-07-22T12:21:15;2.10;;;1.00;;
80586;SDS011;69943;20.850;106.728;2023-07-22T12:23:46;2.30;;;1.30;;
80586;SDS011;69943;20.850;106.728;2023-07-22T12:26:16;2.80;;;1.10;;
80586;SDS011;69943;20.850;106.728;2023-07-22T12:28:46;1.20;;;1.10;;
80586;SDS011;69943;20.850;106.728;2023-07-22T12:31:16;1.40;;;1.00;;
80586;SDS011;69943;20.850;106.728;2023-07-22T12:33:46;2.40;;;1.30;;
80586;SDS011;69943;20.850;106.728;2023-07-22T12:36:16;3.10;;;1.10;;
80586;SDS011;69943;20.850;106.728;2023-07-22T12:38:46;2.80;;;1.30;;
80586;SDS011;69943;20.850;106.728;2023-07-22T12:41:16;0.90;;;0.80;;
80586;SDS011;69943;20.850;106.728;2023-07-22T12:43:46;2.30;;;1.40;;
80586;SDS011;69943;20.850;106.728;2023-07-22T12:46:17;2.80;;;1.50;;
80586;SDS011;69943;20.850;106.728;2023-07-22T12:48:47;1.10;;;0.90;;
80586;SDS011;69943;20.850;106.728;2023-07-22T12:51:17;3.20;;;1.20;;
80586;SDS011;69943;20.850;106.728;2023-07-22T12:53:47;1.70;;;0.90;;
80586;SDS011;69943;20.850;106.728;2023-07-22T12:56:17;1.50;;;1.10;;
80586;SDS011;69943;20.850;106.728;2023-07-22T12:58:48;1.30;;;1.20;;
80586;SDS011;69943;20.850;106.728;2023-07-22T13:01:19;3.40;;;1.30;;
80586;SDS011;69943;20.850;106.728;2023-07-22T13:03:48;1.60;;;1.00;;
80586;SDS011;69943;20.850;106.728;2023-07-22T13:06:18;2.80;;;1.10;;
80586;SDS011;69943;20.850;106.728;2023-07-22T13:08:48;3.00;;;1.20;;
80586;SDS011;69943;20.850;106.728;2023-07-22T13:11:19;2.80;;;1.40;;
80586;SDS011;69943;20.850;106.728;2023-07-22T13:13:49;2.70;;;1.20;;
80586;SDS011;69943;20.850;106.728;2023-07-22T13:16:20;1.90;;;1.10;;
80586;SDS011;69943;20.850;106.728;2023-07-22T13:18:50;3.80;;;1.20;;
80586;SDS011;69943;20.850;106.728;2023-07-22T13:21:20;3.60;;;1.40;;
80586;SDS011;69943;20.850;106.728;2023-07-22T13:23:50;3.00;;;0.90;;
80586;SDS011;69943;20.850;106.728;2023-07-22T13:26:20;1.30;;;0.90;;
80586;SDS011;69943;20.850;106.728;2023-07-22T13:28:50;2.00;;;1.40;;
80586;SDS011;69943;20.850;106.728;2023-07-22T13:31:20;2.30;;;1.10;;
80586;SDS011;69943;20.850;106.728;2023-07-22T13:33:50;2.30;;;1.20;;
80586;SDS011;69943;20.850;106.728;2023-07-22T13:36:22;2.00;;;1.10;;
80586;SDS011;69943;20.850;106.728;2023-07-22T13:38:52;1.30;;;1.00;;
80586;SDS011;69943;20.850;106.728;2023-07-22T13:41:22;2.00;;;1.10;;
80586;SDS011;69943;20.850;106.728;2023-07-22T13:43:53;1.90;;;1.20;;
80586;SDS011;69943;20.850;106.728;2023-07-22T13:46:23;1.30;;;1.00;;
80586;SDS011;69943;20.850;106.728;2023-07-22T13:48:53;1.80;;;1.10;;
80586;SDS011;69943;20.850;106.728;2023-07-22T13:51:24;1.10;;;0.80;;
80586;SDS011;69943;20.850;106.728;2023-07-22T13:53:54;1.10;;;1.00;;
80586;SDS011;69943;20.850;106.728;2023-07-22T13:56:25;1.50;;;1.10;;
80586;SDS011;69943;20.850;106.728;2023-07-22T13:58:55;1.30;;;0.90;;
80586;SDS011;69943;20.850;106.728;2023-07-22T14:01:27;2.00;;;1.00;;
80586;SDS011;69943;20.850;106.728;2023-07-22T14:03:57;1.10;;;1.00;;
80586;SDS011;69943;20.850;106.728;2023-07-22T14:06:27;1.60;;;1.40;;
80586;SDS011;69943;20.850;106.728;2023-07-22T14:08:58;2.50;;;1.20;;
80586;SDS011;69943;20.850;106.728;2023-07-22T14:11:28;2.40;;;1.20;;
80586;SDS011;69943;20.850;106.728;2023-07-22T14:13:58;2.20;;;1.20;;
80586;SDS011;69943;20.850;106.728;2023-07-22T14:16:28;2.20;;;1.40;;
80586;SDS011;69943;20.850;106.728;2023-07-22T14:18:58;1.10;;;0.90;;
80586;SDS011;69943;20.850;106.728;2023-07-22T14:21:28;1.10;;;1.00;;
80586;SDS011;69943;20.850;106.728;2023-07-22T14:23:58;2.50;;;1.30;;
80586;SDS011;69943;20.850;106.728;2023-07-22T14:26:28;1.80;;;1.00;;
80586;SDS011;69943;20.850;106.728;2023-07-22T14:28:59;1.70;;;0.80;;
80586;SDS011;69943;20.850;106.728;2023-07-22T14:31:29;1.10;;;1.00;;
80586;SDS011;69943;20.850;106.728;2023-07-22T14:33:59;1.40;;;0.90;;
80586;SDS011;69943;20.850;106.728;2023-07-22T14:36:29;1.10;;;1.00;;
80586;SDS011;69943;20.850;106.728;2023-07-22T14:38:59;3.40;;;1.50;;
80586;SDS011;69943;20.850;106.728;2023-07-22T14:41:30;1.80;;;0.80;;
80586;SDS011;69943;20.850;106.728;2023-07-22T14:44:00;1.80;;;1.10;;
80586;SDS011;69943;20.850;106.728;2023-07-22T14:46:30;2.70;;;1.40;;